Pembroke Pines, Florida
Current Conditions -  °F | °C
As of 12:53 PM on Saturday 20 Dec 2014 (Local Time) from KHWO Reporting Station
Broken Clouds Broken Clouds  
Wind Chill: 78°   Ceiling: 4700
Heat Index: 80°   Visibility: 10mi
Dew Point: 62°   Wind: 8mph
Humidity: 58%   Direction: 120°ESE
Pressure: 30.07"   Gusts: NA
Location:  26.01°N, 80.28°W
Report Text: KHWO 201753Z 12007KT 10SM SCT037 BKN047 26/17 A3007 RMK AO2 SLP182 T02560167 10261 20144 58019
Loading
Personal Weather Stations






























Interactive Weather Map New forecast layout! Learn more

10-Day Weather Forecast

Advertisements
Track Severe Weather on mobile